Time,TemperatureF,DewpointF,PressureIn,WindDirection,WindDirectionDegrees,WindSpeedMPH,WindSpeedGustMPH,Humidity,HourlyPrecipIn,Conditions,Clouds,dailyrainin,SoftwareType,DateUTC
2013-03-13 00:01:00,57.2,42.1,30.01,South,174,0.0,0.0,57,0.00,,---,0.00,VWS V13.01,2013-03-13 07:01:00,
2013-03-13 00:07:00,57.2,42.6,30.01,South,174,0.0,0.0,58,0.00,,---,0.00,VWS V13.01,2013-03-13 07:07:00,
2013-03-13 00:13:00,57.2,42.6,30.01,South,174,0.0,0.0,58,0.00,,---,0.00,VWS V13.01,2013-03-13 07:13:00,
2013-03-13 00:19:00,57.2,42.6,30.01,South,174,0.0,0.0,58,0.00,,---,0.00,VWS V13.01,2013-03-13 07:19:00,
2013-03-13 00:24:00,57.0,42.4,30.01,South,174,0.0,0.0,58,0.00,,---,0.00,VWS V13.01,2013-03-13 07:24:00,
2013-03-13 00:30:00,56.7,42.1,30.01,South,174,0.0,0.0,58,0.00,,---,0.00,VWS V13.01,2013-03-13 07:30:00,
2013-03-13 00:35:00,56.7,42.1,30.01,South,174,0.0,0.0,58,0.00,,---,0.00,VWS V13.01,2013-03-13 07:35:00,
2013-03-13 00:41:00,56.7,42.5,30.04,South,174,0.0,0.0,59,0.00,,---,0.00,VWS V13.01,2013-03-13 07:41:00,
2013-03-13 00:47:00,56.5,42.3,30.04,South,174,0.0,0.0,59,0.00,,---,0.00,VWS V13.01,2013-03-13 07:47:00,
2013-03-13 00:53:00,56.7,43.0,30.04,South,174,0.0,0.0,60,0.00,,---,0.00,VWS V13.01,2013-03-13 07:53:00,
2013-03-13 00:59:00,56.7,43.0,30.01,South,174,0.0,0.0,60,0.00,,---,0.00,VWS V13.01,2013-03-13 07:59:00,
2013-03-13 01:05:00,56.7,43.0,30.01,South,174,0.0,0.0,60,0.00,,---,0.00,VWS V13.01,2013-03-13 08:05:00,
2013-03-13 01:10:00,56.7,43.0,30.01,South,174,0.0,0.0,60,0.00,,---,0.00,VWS V13.01,2013-03-13 08:10:00,
2013-03-13 01:16:00,56.7,43.0,30.01,South,174,0.0,0.0,60,0.00,,---,0.00,VWS V13.01,2013-03-13 08:16:00,
2013-03-13 01:22:00,56.5,42.8,30.01,South,174,0.0,0.0,60,0.00,,---,0.00,VWS V13.01,2013-03-13 08:22:00,
2013-03-13 01:28:00,56.3,42.6,30.01,South,174,0.0,0.0,60,0.00,,---,0.00,VWS V13.01,2013-03-13 08:28:00,
2013-03-13 01:34:00,56.1,42.4,30.01,South,174,0.0,0.0,60,0.00,,---,0.00,VWS V13.01,2013-03-13 08:34:00,
2013-03-13 01:40:00,55.8,42.1,30.01,South,174,0.0,0.0,60,0.00,,---,0.00,VWS V13.01,2013-03-13 08:40:00,
2013-03-13 01:46:00,55.6,41.9,30.01,South,174,0.0,0.0,60,0.00,,---,0.00,VWS V13.01,2013-03-13 08:46:00,
2013-03-13 01:52:00,55.0,41.8,30.01,South,174,0.0,0.0,61,0.00,,---,0.00,VWS V13.01,2013-03-13 08:52:00,
2013-03-13 01:58:00,54.9,41.7,30.01,South,174,0.0,0.0,61,0.00,,---,0.00,VWS V13.01,2013-03-13 08:58:00,
2013-03-13 02:04:00,54.5,41.3,30.01,South,174,0.0,0.0,61,0.00,,---,0.00,VWS V13.01,2013-03-13 09:04:00,
2013-03-13 02:09:00,54.3,41.2,30.01,South,174,0.0,0.0,61,0.00,,---,0.00,VWS V13.01,2013-03-13 09:09:00,
2013-03-13 02:14:00,54.0,40.8,30.01,South,174,0.0,0.0,61,0.00,,---,0.00,VWS V13.01,2013-03-13 09:14:00,
2013-03-13 02:19:00,53.8,40.7,30.01,South,174,0.0,0.0,61,0.00,,---,0.00,VWS V13.01,2013-03-13 09:19:00,
2013-03-13 02:24:00,53.6,40.5,30.01,South,174,0.0,0.0,61,0.00,,---,0.00,VWS V13.01,2013-03-13 09:24:00,
2013-03-13 02:30:00,53.6,40.9,30.01,South,174,0.0,0.0,62,0.00,,---,0.00,VWS V13.01,2013-03-13 09:30:00,
2013-03-13 02:37:00,53.6,40.9,30.01,South,174,0.0,0.0,62,0.00,,---,0.00,VWS V13.01,2013-03-13 09:37:00,
2013-03-13 02:43:00,53.6,40.9,30.01,South,174,0.0,0.0,62,0.00,,---,0.00,VWS V13.01,2013-03-13 09:43:00,
2013-03-13 02:49:00,53.6,41.3,30.01,South,174,0.0,0.0,63,0.00,,---,0.00,VWS V13.01,2013-03-13 09:49:00,
2013-03-13 02:55:00,53.6,41.3,30.01,South,174,0.0,0.0,63,0.00,,---,0.00,VWS V13.01,2013-03-13 09:55:00,
2013-03-13 03:01:00,53.4,41.2,30.01,South,174,0.0,0.0,63,0.00,,---,0.00,VWS V13.01,2013-03-13 10:01:00,
2013-03-13 03:07:00,53.2,41.4,30.01,South,174,0.0,0.0,64,0.00,,---,0.00,VWS V13.01,2013-03-13 10:07:00,
2013-03-13 03:13:00,53.2,41.4,30.01,South,174,0.0,0.0,64,0.00,,---,0.00,VWS V13.01,2013-03-13 10:13:00,
2013-03-13 03:19:00,53.4,41.6,30.01,South,174,0.0,0.0,64,0.00,,---,0.00,VWS V13.01,2013-03-13 10:19:00,
2013-03-13 03:24:00,53.4,42.0,30.01,South,174,0.0,0.0,65,0.00,,---,0.00,VWS V13.01,2013-03-13 10:24:00,
2013-03-13 03:29:00,53.4,42.0,30.01,South,174,0.0,0.0,65,0.00,,---,0.00,VWS V13.01,2013-03-13 10:29:00,
2013-03-13 03:34:00,53.4,42.0,30.01,South,174,0.0,0.0,65,0.00,,---,0.00,VWS V13.01,2013-03-13 10:34:00,
2013-03-13 03:40:00,53.4,42.0,30.01,South,174,0.0,0.0,65,0.00,,---,0.00,VWS V13.01,2013-03-13 10:40:00,
2013-03-13 03:46:00,53.6,42.1,30.01,South,174,0.0,0.0,65,0.00,,---,0.00,VWS V13.01,2013-03-13 10:46:00,
2013-03-13 03:52:00,53.8,42.3,30.01,South,174,0.0,0.0,65,0.00,,---,0.00,VWS V13.01,2013-03-13 10:52:00,
2013-03-13 03:58:00,54.0,42.5,30.01,South,174,0.0,0.0,65,0.00,,---,0.00,VWS V13.01,2013-03-13 10:58:00,
2013-03-13 04:04:00,53.8,42.3,30.01,South,174,0.0,0.0,65,0.00,,---,0.00,VWS V13.01,2013-03-13 11:04:00,
2013-03-13 04:09:00,53.8,42.3,30.01,South,174,0.0,0.0,65,0.00,,---,0.00,VWS V13.01,2013-03-13 11:09:00,
2013-03-13 04:15:00,53.8,42.3,30.01,South,174,0.0,0.0,65,0.00,,---,0.00,VWS V13.01,2013-03-13 11:15:00,
2013-03-13 04:20:00,53.8,42.3,30.01,South,174,0.0,0.0,65,0.00,,---,0.00,VWS V13.01,2013-03-13 11:20:00,
2013-03-13 04:26:00,53.6,42.1,30.01,South,174,0.0,0.0,65,0.00,,---,0.00,VWS V13.01,2013-03-13 11:26:00,
2013-03-13 04:32:00,53.6,42.1,30.01,South,174,0.0,0.0,65,0.00,,---,0.00,VWS V13.01,2013-03-13 11:32:00,
2013-03-13 04:38:00,53.4,42.0,30.01,South,174,0.0,0.0,65,0.00,,---,0.00,VWS V13.01,2013-03-13 11:38:00,
2013-03-13 04:44:00,53.4,42.0,30.01,South,174,0.0,0.0,65,0.00,,---,0.00,VWS V13.01,2013-03-13 11:44:00,
2013-03-13 04:49:00,53.2,41.8,30.01,South,174,0.0,0.0,65,0.00,,---,0.00,VWS V13.01,2013-03-13 11:49:00,
2013-03-13 04:54:00,53.2,42.2,30.01,South,174,0.0,0.0,66,0.00,,---,0.00,VWS V13.01,2013-03-13 11:54:00,
2013-03-13 05:00:00,53.2,42.2,30.01,South,174,0.0,0.0,66,0.00,,---,0.00,VWS V13.01,2013-03-13 12:00:00,
2013-03-13 05:07:00,53.2,42.2,30.01,South,174,0.0,0.0,66,0.00,,---,0.00,VWS V13.01,2013-03-13 12:07:00,
2013-03-13 05:13:00,53.1,42.0,30.01,South,174,0.0,0.0,66,0.00,,---,0.00,VWS V13.01,2013-03-13 12:13:00,
2013-03-13 05:19:00,53.1,42.0,30.01,South,174,0.0,0.0,66,0.00,,---,0.00,VWS V13.01,2013-03-13 12:19:00,
2013-03-13 05:24:00,52.7,41.7,30.01,South,174,0.0,0.0,66,0.00,,---,0.00,VWS V13.01,2013-03-13 12:24:00,
2013-03-13 05:29:00,52.5,41.5,30.01,South,174,0.0,0.0,66,0.00,,---,0.00,VWS V13.01,2013-03-13 12:29:00,
2013-03-13 05:35:00,52.3,41.3,30.01,South,174,0.0,0.0,66,0.00,,---,0.00,VWS V13.01,2013-03-13 12:35:00,
2013-03-13 05:41:00,52.2,41.2,30.04,South,174,0.0,0.0,66,0.00,,---,0.00,VWS V13.01,2013-03-13 12:41:00,
2013-03-13 05:47:00,52.0,41.0,30.04,South,174,0.0,0.0,66,0.00,,---,0.00,VWS V13.01,2013-03-13 12:47:00,
2013-03-13 05:53:00,52.0,41.4,30.04,South,174,0.0,0.0,67,0.00,,---,0.00,VWS V13.01,2013-03-13 12:53:00,
2013-03-13 05:59:00,52.2,41.5,30.04,South,174,0.0,0.0,67,0.00,,---,0.00,VWS V13.01,2013-03-13 12:59:00,
2013-03-13 06:04:00,52.3,42.1,30.01,South,174,0.0,0.0,68,0.00,,---,0.00,VWS V13.01,2013-03-13 13:04:00,
2013-03-13 06:09:00,52.5,42.3,30.01,South,174,0.0,0.0,68,0.00,,---,0.00,VWS V13.01,2013-03-13 13:09:00,
2013-03-13 06:16:00,52.7,42.5,30.01,South,174,0.0,0.0,68,0.00,,---,0.00,VWS V13.01,2013-03-13 13:16:00,
2013-03-13 06:22:00,52.5,41.9,30.01,South,174,0.0,0.0,67,0.00,,---,0.00,VWS V13.01,2013-03-13 13:22:00,
2013-03-13 06:28:00,52.3,41.7,30.01,South,174,0.0,0.0,67,0.00,,---,0.00,VWS V13.01,2013-03-13 13:28:00,
2013-03-13 06:34:00,51.8,40.8,30.01,South,174,0.0,0.0,66,0.00,,---,0.00,VWS V13.01,2013-03-13 13:34:00,
2013-03-13 06:40:00,51.6,41.0,30.01,South,174,0.0,0.0,67,0.00,,---,0.00,VWS V13.01,2013-03-13 13:40:00,
2013-03-13 06:45:00,51.3,40.3,30.01,South,174,0.0,0.0,66,0.00,,---,0.00,VWS V13.01,2013-03-13 13:45:00,
2013-03-13 06:51:00,51.3,40.3,30.01,South,174,0.0,0.0,66,0.00,,---,0.00,VWS V13.01,2013-03-13 13:51:00,
2013-03-13 06:57:00,50.5,40.0,30.01,South,174,0.0,0.0,67,0.00,,---,0.00,VWS V13.01,2013-03-13 13:57:00,
2013-03-13 07:03:00,50.5,40.0,30.01,South,174,0.0,0.0,67,0.00,,---,0.00,VWS V13.01,2013-03-13 14:03:00,
2013-03-13 07:09:00,50.4,39.8,30.01,South,174,0.0,0.0,67,0.00,,---,0.00,VWS V13.01,2013-03-13 14:09:00,
2013-03-13 07:15:00,50.2,40.0,30.01,South,174,0.0,0.0,68,0.00,,---,0.00,VWS V13.01,2013-03-13 14:15:00,
2013-03-13 07:21:00,50.0,39.9,30.01,South,174,0.0,0.0,68,0.00,,---,0.00,VWS V13.01,2013-03-13 14:21:00,
2013-03-13 07:27:00,49.8,39.7,30.01,South,174,0.0,0.0,68,0.00,,---,0.00,VWS V13.01,2013-03-13 14:27:00,
2013-03-13 07:33:00,49.8,40.1,30.01,South,174,0.0,0.0,69,0.00,,---,0.00,VWS V13.01,2013-03-13 14:33:00,
2013-03-13 07:39:00,50.0,40.2,30.01,South,174,0.0,0.0,69,0.00,,---,0.00,VWS V13.01,2013-03-13 14:39:00,
2013-03-13 07:45:00,50.2,40.8,30.01,South,174,0.0,0.0,70,0.00,,---,0.00,VWS V13.01,2013-03-13 14:45:00,
2013-03-13 07:51:00,50.2,40.8,30.01,South,174,0.0,0.0,70,0.00,,---,0.00,VWS V13.01,2013-03-13 14:51:00,
2013-03-13 07:57:00,50.4,41.0,30.01,South,174,0.0,0.0,70,0.00,,---,0.00,VWS V13.01,2013-03-13 14:57:00,
2013-03-13 08:04:00,50.9,41.8,30.04,South,174,0.0,0.0,71,0.00,,---,0.00,VWS V13.01,2013-03-13 15:04:00,
2013-03-13 08:10:00,51.8,42.7,30.04,South,174,0.0,0.0,71,0.00,,---,0.00,VWS V13.01,2013-03-13 15:10:00,
2013-03-13 08:16:00,52.7,43.6,30.04,South,174,0.0,0.0,71,0.00,,---,0.00,VWS V13.01,2013-03-13 15:16:00,
2013-03-13 08:22:00,54.1,44.6,30.04,South,174,0.0,0.0,70,0.00,,---,0.00,VWS V13.01,2013-03-13 15:22:00,
2013-03-13 08:28:00,55.8,45.8,30.04,South,174,0.0,0.0,69,0.00,,---,0.00,VWS V13.01,2013-03-13 15:28:00,
2013-03-13 08:34:00,56.8,45.2,30.04,South,174,0.0,0.0,65,0.00,,---,0.00,VWS V13.01,2013-03-13 15:34:00,
2013-03-13 08:39:00,57.6,45.1,30.04,South,174,0.0,0.0,63,0.00,,---,0.00,VWS V13.01,2013-03-13 15:39:00,
2013-03-13 08:44:00,58.6,45.7,30.04,South,174,0.0,0.0,62,0.00,,---,0.00,VWS V13.01,2013-03-13 15:44:00,
2013-03-13 08:49:00,59.7,46.3,30.04,South,174,0.0,0.0,61,0.00,,---,0.00,VWS V13.01,2013-03-13 15:49:00,
2013-03-13 08:54:00,61.2,47.2,30.04,West,262,0.0,0.0,60,0.00,,---,0.00,VWS V13.01,2013-03-13 15:54:00,
2013-03-13 09:00:00,61.9,47.4,30.04,West,262,0.0,0.0,59,0.00,,---,0.00,VWS V13.01,2013-03-13 16:00:00,
2013-03-13 09:05:00,63.0,47.5,30.04,WNW,294,0.0,0.0,57,0.00,,---,0.00,VWS V13.01,2013-03-13 16:05:00,
2013-03-13 09:11:00,63.3,46.4,30.04,North,4,0.0,0.0,54,0.00,,---,0.00,VWS V13.01,2013-03-13 16:11:00,
2013-03-13 09:17:00,64.4,45.4,30.04,North,4,0.0,0.0,50,0.00,,---,0.00,VWS V13.01,2013-03-13 16:17:00,
2013-03-13 09:23:00,64.9,45.3,30.04,North,4,0.0,0.0,49,0.00,,---,0.00,VWS V13.01,2013-03-13 16:23:00,
2013-03-13 09:29:00,65.8,46.2,30.04,North,4,0.0,0.0,49,0.00,,---,0.00,VWS V13.01,2013-03-13 16:29:00,
2013-03-13 09:35:00,65.8,45.6,30.04,North,4,0.0,0.0,48,0.00,,---,0.00,VWS V13.01,2013-03-13 16:35:00,
2013-03-13 09:41:00,64.9,44.8,30.04,North,4,0.0,0.0,48,0.00,,---,0.00,VWS V13.01,2013-03-13 16:41:00,
2013-03-13 09:47:00,64.4,44.3,30.04,SSE,167,0.0,0.0,48,0.00,,---,0.00,VWS V13.01,2013-03-13 16:47:00,
2013-03-13 09:53:00,63.3,43.8,30.04,SE,141,0.0,0.0,49,0.00,,---,0.00,VWS V13.01,2013-03-13 16:53:00,
2013-03-13 09:59:00,63.1,43.7,30.04,SE,130,0.0,0.0,49,0.00,,---,0.00,VWS V13.01,2013-03-13 16:59:00,
2013-03-13 10:05:00,63.0,43.5,30.04,South,172,0.0,0.0,49,0.00,,---,0.00,VWS V13.01,2013-03-13 17:05:00,
2013-03-13 10:10:00,63.1,43.7,30.04,SSW,195,0.0,0.0,49,0.00,,---,0.00,VWS V13.01,2013-03-13 17:10:00,
2013-03-13 10:16:00,63.3,43.8,30.04,SSE,147,0.0,0.0,49,0.00,,---,0.00,VWS V13.01,2013-03-13 17:16:00,
2013-03-13 10:22:00,63.7,44.2,30.04,SSE,149,0.0,0.0,49,0.00,,---,0.00,VWS V13.01,2013-03-13 17:22:00,
2013-03-13 10:28:00,63.9,44.3,30.04,SE,138,0.0,0.0,49,0.00,,---,0.00,VWS V13.01,2013-03-13 17:28:00,
2013-03-13 10:34:00,65.5,45.3,30.04,SE,146,0.0,0.0,48,0.00,,---,0.00,VWS V13.01,2013-03-13 17:34:00,
2013-03-13 10:39:00,66.4,44.4,30.04,SSE,151,0.0,0.0,45,0.00,,---,0.00,VWS V13.01,2013-03-13 17:39:00,
2013-03-13 10:45:00,66.9,44.9,30.04,SE,141,0.0,0.0,45,0.00,,---,0.00,VWS V13.01,2013-03-13 17:45:00,
2013-03-13 10:51:00,67.3,43.4,30.04,SSE,151,0.0,0.0,42,0.00,,---,0.00,VWS V13.01,2013-03-13 17:51:00,
2013-03-13 10:57:00,68.0,44.1,30.04,SE,143,0.0,0.0,42,0.00,,---,0.00,VWS V13.01,2013-03-13 17:57:00,
2013-03-13 11:03:00,68.4,44.4,30.04,SSE,148,0.0,0.0,42,0.00,,---,0.00,VWS V13.01,2013-03-13 18:03:00,
2013-03-13 11:09:00,68.9,44.9,30.04,SSE,165,0.0,0.0,42,0.00,,---,0.00,VWS V13.01,2013-03-13 18:09:00,
2013-03-13 11:15:00,69.1,43.8,30.04,SSE,165,0.0,0.0,40,0.00,,---,0.00,VWS V13.01,2013-03-13 18:15:00,
2013-03-13 11:21:00,69.3,43.9,30.04,SSE,165,0.0,0.0,40,0.00,,---,0.00,VWS V13.01,2013-03-13 18:21:00,
2013-03-13 11:27:00,69.8,43.8,30.04,SSE,147,2.7,3.1,39,0.00,,---,0.00,VWS V13.01,2013-03-13 18:27:00,
2013-03-13 11:33:00,69.8,43.8,30.04,SSE,149,0.0,0.0,39,0.00,,---,0.00,VWS V13.01,2013-03-13 18:33:00,
2013-03-13 11:39:00,70.3,44.2,30.04,SSE,149,2.7,2.7,39,0.00,,---,0.00,VWS V13.01,2013-03-13 18:39:00,
2013-03-13 11:44:00,71.2,45.0,30.04,SSE,149,0.0,0.0,39,0.00,,---,0.00,VWS V13.01,2013-03-13 18:44:00,
2013-03-13 11:50:00,71.6,45.4,30.04,SE,144,0.0,2.7,39,0.00,,---,0.00,VWS V13.01,2013-03-13 18:50:00,
2013-03-13 11:55:00,71.4,45.2,30.04,SSE,147,3.1,3.1,39,0.00,,---,0.00,VWS V13.01,2013-03-13 18:55:00,
2013-03-13 12:01:00,72.1,45.8,30.04,SW,225,0.0,0.0,39,0.00,,---,0.00,VWS V13.01,2013-03-13 19:01:00,
2013-03-13 12:07:00,72.0,43.6,30.04,SE,142,0.0,2.2,36,0.00,,---,0.00,VWS V13.01,2013-03-13 19:07:00,
2013-03-13 12:13:00,71.8,43.4,30.04,SE,142,0.0,3.6,36,0.00,,---,0.00,VWS V13.01,2013-03-13 19:13:00,
2013-03-13 12:19:00,72.0,43.6,30.04,SE,142,0.0,0.0,36,0.00,,---,0.00,VWS V13.01,2013-03-13 19:19:00,
2013-03-13 12:25:00,72.5,44.1,30.04,North,7,0.0,0.0,36,0.00,,---,0.00,VWS V13.01,2013-03-13 19:25:00,
2013-03-13 12:31:00,73.6,45.0,30.04,South,182,0.0,0.0,36,0.00,,---,0.00,VWS V13.01,2013-03-13 19:31:00,
2013-03-13 12:38:00,74.3,45.7,30.04,SSE,150,2.2,2.2,36,0.00,,---,0.00,VWS V13.01,2013-03-13 19:38:00,
2013-03-13 12:44:00,74.5,45.8,30.04,SSE,150,0.0,2.7,36,0.00,,---,0.00,VWS V13.01,2013-03-13 19:44:00,
2013-03-13 12:49:00,75.0,46.3,30.04,ESE,118,0.0,0.0,36,0.00,,---,0.00,VWS V13.01,2013-03-13 19:49:00,
2013-03-13 12:56:00,75.9,46.3,30.04,ESE,109,0.0,0.0,35,0.00,,---,0.00,VWS V13.01,2013-03-13 19:56:00,
2013-03-13 13:02:00,76.3,46.7,30.04,SSW,192,3.1,3.1,35,0.00,,---,0.00,VWS V13.01,2013-03-13 20:02:00,
2013-03-13 13:08:00,76.3,46.7,30.04,SW,214,0.0,0.0,35,0.00,,---,0.00,VWS V13.01,2013-03-13 20:08:00,
2013-03-13 13:14:00,76.3,46.7,30.04,South,187,0.0,0.0,35,0.00,,---,0.00,VWS V13.01,2013-03-13 20:14:00,
2013-03-13 13:19:00,76.3,46.7,30.04,SSW,199,0.0,0.0,35,0.00,,---,0.00,VWS V13.01,2013-03-13 20:19:00,
2013-03-13 13:24:00,76.5,46.8,30.01,SSW,207,0.0,0.0,35,0.00,,---,0.00,VWS V13.01,2013-03-13 20:24:00,
2013-03-13 13:30:00,76.6,47.0,30.01,SE,146,0.0,0.0,35,0.00,,---,0.00,VWS V13.01,2013-03-13 20:30:00,
2013-03-13 13:36:00,76.3,46.7,30.01,South,181,2.7,2.7,35,0.00,,---,0.00,VWS V13.01,2013-03-13 20:36:00,
2013-03-13 13:42:00,76.6,47.0,30.01,NW,316,0.0,0.0,35,0.00,,---,0.00,VWS V13.01,2013-03-13 20:42:00,
2013-03-13 13:48:00,77.2,47.4,30.01,SE,136,0.0,0.0,35,0.00,,---,0.00,VWS V13.01,2013-03-13 20:48:00,
2013-03-13 13:54:00,76.6,47.0,30.01,SE,140,2.2,4.0,35,0.00,,---,0.00,VWS V13.01,2013-03-13 20:54:00,
2013-03-13 14:00:00,76.5,46.8,30.01,SE,135,0.0,0.0,35,0.00,,---,0.00,VWS V13.01,2013-03-13 21:00:00,
2013-03-13 14:06:00,76.6,47.0,30.01,SE,137,0.0,0.0,35,0.00,,---,0.00,VWS V13.01,2013-03-13 21:06:00,
2013-03-13 14:12:00,75.9,46.3,30.01,SE,142,4.0,4.0,35,0.00,,---,0.00,VWS V13.01,2013-03-13 21:12:00,
2013-03-13 14:19:00,75.9,46.3,30.01,SW,231,0.0,2.7,35,0.00,,---,0.00,VWS V13.01,2013-03-13 21:19:00,
2013-03-13 14:24:00,76.6,47.0,30.01,West,266,0.0,0.0,35,0.00,,---,0.00,VWS V13.01,2013-03-13 21:24:00,
2013-03-13 14:30:00,77.7,47.9,30.01,South,184,3.1,4.0,35,0.00,,---,0.00,VWS V13.01,2013-03-13 21:30:00,
2013-03-13 14:35:00,77.5,47.8,30.01,SE,142,3.6,3.6,35,0.00,,---,0.00,VWS V13.01,2013-03-13 21:35:00,
2013-03-13 14:41:00,76.8,47.1,30.01,SSW,213,0.0,0.0,35,0.00,,---,0.00,VWS V13.01,2013-03-13 21:41:00,
2013-03-13 14:47:00,76.5,46.8,30.01,SSE,158,2.7,2.7,35,0.00,,---,0.00,VWS V13.01,2013-03-13 21:47:00,
2013-03-13 14:53:00,76.8,47.1,30.01,SSE,165,3.6,3.6,35,0.00,,---,0.00,VWS V13.01,2013-03-13 21:53:00,
2013-03-13 14:59:00,76.8,47.1,30.01,SSE,160,0.0,0.0,35,0.00,,---,0.00,VWS V13.01,2013-03-13 21:59:00,
2013-03-13 15:04:00,76.3,46.7,30.01,South,171,2.7,3.1,35,0.00,,---,0.00,VWS V13.01,2013-03-13 22:04:00,
2013-03-13 15:09:00,76.3,46.7,30.01,SSE,166,4.0,4.0,35,0.00,,---,0.00,VWS V13.01,2013-03-13 22:09:00,
2013-03-13 15:14:00,76.3,46.7,30.01,West,263,3.1,3.1,35,0.00,,---,0.00,VWS V13.01,2013-03-13 22:14:00,
2013-03-13 15:20:00,76.5,46.8,30.01,SSE,152,2.2,3.6,35,0.00,,---,0.00,VWS V13.01,2013-03-13 22:20:00,
2013-03-13 15:26:00,76.6,47.0,30.01,South,171,0.0,0.0,35,0.00,,---,0.00,VWS V13.01,2013-03-13 22:26:00,
2013-03-13 15:32:00,77.0,47.3,30.01,South,173,5.4,5.4,35,0.00,,---,0.00,VWS V13.01,2013-03-13 22:32:00,
2013-03-13 15:38:00,76.8,47.1,30.01,SE,141,0.0,0.0,35,0.00,,---,0.00,VWS V13.01,2013-03-13 22:38:00,
2013-03-13 15:44:00,76.3,46.7,30.01,North,0,2.7,2.7,35,0.00,,---,0.00,VWS V13.01,2013-03-13 22:44:00,
2013-03-13 15:49:00,76.3,46.7,30.01,SSW,205,3.6,4.0,35,0.00,,---,0.00,VWS V13.01,2013-03-13 22:49:00,
2013-03-13 15:54:00,76.3,46.7,30.01,SE,133,0.0,0.0,35,0.00,,---,0.00,VWS V13.01,2013-03-13 22:54:00,
2013-03-13 16:01:00,76.1,46.5,30.01,SSE,151,0.0,0.0,35,0.00,,---,0.00,VWS V13.01,2013-03-13 23:01:00,
2013-03-13 16:07:00,76.3,46.7,29.98,South,189,0.0,0.0,35,0.00,,---,0.00,VWS V13.01,2013-03-13 23:07:00,
2013-03-13 16:13:00,76.1,46.5,29.98,SSE,150,0.0,0.0,35,0.00,,---,0.00,VWS V13.01,2013-03-13 23:13:00,
2013-03-13 16:19:00,76.1,46.5,29.98,SSE,153,0.0,0.0,35,0.00,,---,0.00,VWS V13.01,2013-03-13 23:19:00,
2013-03-13 16:24:00,76.1,46.5,29.98,SSE,149,0.0,0.0,35,0.00,,---,0.00,VWS V13.01,2013-03-13 23:24:00,
2013-03-13 16:31:00,76.3,46.7,29.98,South,175,0.0,0.0,35,0.00,,---,0.00,VWS V13.01,2013-03-13 23:31:00,
2013-03-13 16:37:00,76.3,46.7,29.98,SE,146,0.0,0.0,35,0.00,,---,0.00,VWS V13.01,2013-03-13 23:37:00,
2013-03-13 16:43:00,76.6,47.0,29.98,SSW,207,3.1,3.1,35,0.00,,---,0.00,VWS V13.01,2013-03-13 23:43:00,
2013-03-13 16:49:00,76.6,47.0,29.98,SSE,160,0.0,2.7,35,0.00,,---,0.00,VWS V13.01,2013-03-13 23:49:00,
2013-03-13 16:55:00,77.0,47.3,29.98,South,176,0.0,0.0,35,0.00,,---,0.00,VWS V13.01,2013-03-13 23:55:00,
2013-03-13 17:01:00,76.8,47.1,29.98,South,177,0.0,3.1,35,0.00,,---,0.00,VWS V13.01,2013-03-14 00:01:00,
2013-03-13 17:07:00,76.5,46.8,29.98,South,175,0.0,0.0,35,0.00,,---,0.00,VWS V13.01,2013-03-14 00:07:00,
2013-03-13 17:13:00,76.5,46.8,29.98,SSE,158,0.0,0.0,35,0.00,,---,0.00,VWS V13.01,2013-03-14 00:13:00,
2013-03-13 17:19:00,76.5,46.8,29.98,SSE,158,0.0,0.0,35,0.00,,---,0.00,VWS V13.01,2013-03-14 00:19:00,
2013-03-13 17:24:00,76.3,46.7,29.98,SSE,158,0.0,0.0,35,0.00,,---,0.00,VWS V13.01,2013-03-14 00:24:00,
2013-03-13 17:29:00,76.3,46.7,29.98,SSE,158,0.0,0.0,35,0.00,,---,0.00,VWS V13.01,2013-03-14 00:29:00,
2013-03-13 17:35:00,76.3,46.7,29.98,SSE,158,0.0,0.0,35,0.00,,---,0.00,VWS V13.01,2013-03-14 00:35:00,
2013-03-13 17:42:00,76.3,46.7,29.98,SSE,158,0.0,0.0,35,0.00,,---,0.00,VWS V13.01,2013-03-14 00:42:00,
2013-03-13 17:48:00,76.3,46.7,29.98,SSE,155,0.0,0.0,35,0.00,,---,0.00,VWS V13.01,2013-03-14 00:48:00,
2013-03-13 17:54:00,76.3,46.7,29.98,NE,47,0.0,0.0,35,0.00,,---,0.00,VWS V13.01,2013-03-14 00:54:00,
2013-03-13 17:59:00,76.1,46.5,29.98,North,353,0.0,2.7,35,0.00,,---,0.00,VWS V13.01,2013-03-14 00:59:00,
2013-03-13 18:04:00,75.9,46.3,29.98,North,6,0.0,0.0,35,0.00,,---,0.00,VWS V13.01,2013-03-14 01:04:00,
2013-03-13 18:09:00,75.9,46.3,29.98,North,357,3.1,3.6,35,0.00,,---,0.00,VWS V13.01,2013-03-14 01:09:00,
2013-03-13 18:14:00,75.7,46.2,29.98,North,357,0.0,0.0,35,0.00,,---,0.00,VWS V13.01,2013-03-14 01:14:00,
2013-03-13 18:20:00,75.4,45.9,29.98,North,1,0.0,0.0,35,0.00,,---,0.00,VWS V13.01,2013-03-14 01:20:00,
2013-03-13 18:26:00,75.2,45.7,29.98,North,1,0.0,0.0,35,0.00,,---,0.00,VWS V13.01,2013-03-14 01:26:00,
2013-03-13 18:32:00,74.8,46.1,29.98,North,1,0.0,0.0,36,0.00,,---,0.00,VWS V13.01,2013-03-14 01:32:00,
2013-03-13 18:38:00,74.5,45.8,29.98,North,1,0.0,0.0,36,0.00,,---,0.00,VWS V13.01,2013-03-14 01:38:00,
2013-03-13 18:44:00,74.1,45.5,29.98,North,1,0.0,0.0,36,0.00,,---,0.00,VWS V13.01,2013-03-14 01:44:00,
2013-03-13 18:49:00,74.1,45.5,29.98,North,1,0.0,0.0,36,0.00,,---,0.00,VWS V13.01,2013-03-14 01:49:00,
2013-03-13 18:54:00,73.6,45.0,29.98,North,1,0.0,0.0,36,0.00,,---,0.00,VWS V13.01,2013-03-14 01:54:00,
2013-03-13 18:59:00,73.2,44.7,29.98,North,1,0.0,0.0,36,0.00,,---,0.00,VWS V13.01,2013-03-14 01:59:00,
2013-03-13 19:04:00,72.5,44.1,29.98,North,1,0.0,0.0,36,0.00,,---,0.00,VWS V13.01,2013-03-14 02:04:00,
2013-03-13 19:09:00,72.0,43.6,29.98,North,1,0.0,0.0,36,0.00,,---,0.00,VWS V13.01,2013-03-14 02:09:00,
2013-03-13 19:15:00,71.1,43.5,29.98,North,1,0.0,0.0,37,0.00,,---,0.00,VWS V13.01,2013-03-14 02:15:00,
2013-03-13 19:21:00,70.5,43.0,29.98,North,1,0.0,0.0,37,0.00,,---,0.00,VWS V13.01,2013-03-14 02:21:00,
2013-03-13 19:27:00,69.6,42.2,29.98,North,1,0.0,0.0,37,0.00,,---,0.00,VWS V13.01,2013-03-14 02:27:00,
2013-03-13 19:33:00,68.9,41.6,29.98,North,1,0.0,0.0,37,0.00,,---,0.00,VWS V13.01,2013-03-14 02:33:00,
2013-03-13 19:39:00,68.7,41.4,29.98,North,1,0.0,0.0,37,0.00,,---,0.00,VWS V13.01,2013-03-14 02:39:00,
2013-03-13 19:44:00,68.5,41.3,29.98,North,1,0.0,0.0,37,0.00,,---,0.00,VWS V13.01,2013-03-14 02:44:00,
2013-03-13 19:49:00,68.5,41.3,29.98,North,1,0.0,0.0,37,0.00,,---,0.00,VWS V13.01,2013-03-14 02:49:00,
2013-03-13 19:54:00,68.2,40.9,29.98,North,1,0.0,0.0,37,0.00,,---,0.00,VWS V13.01,2013-03-14 02:54:00,
2013-03-13 20:00:00,68.0,40.8,29.98,North,1,0.0,0.0,37,0.00,,---,0.00,VWS V13.01,2013-03-14 03:00:00,
2013-03-13 20:06:00,67.5,40.3,29.98,North,1,0.0,0.0,37,0.00,,---,0.00,VWS V13.01,2013-03-14 03:06:00,
2013-03-13 20:12:00,67.3,40.1,29.98,North,1,0.0,0.0,37,0.00,,---,0.00,VWS V13.01,2013-03-14 03:12:00,
2013-03-13 20:18:00,66.9,39.8,29.98,North,1,0.0,0.0,37,0.00,,---,0.00,VWS V13.01,2013-03-14 03:18:00,
2013-03-13 20:24:00,66.7,41.7,29.98,North,1,0.0,0.0,40,0.00,,---,0.00,VWS V13.01,2013-03-14 03:24:00,
2013-03-13 20:29:00,66.4,41.3,29.98,North,1,0.0,0.0,40,0.00,,---,0.00,VWS V13.01,2013-03-14 03:29:00,
2013-03-13 20:34:00,66.0,41.0,29.98,North,1,0.0,0.0,40,0.00,,---,0.00,VWS V13.01,2013-03-14 03:34:00,
2013-03-13 20:40:00,65.8,40.9,29.98,North,1,0.0,0.0,40,0.00,,---,0.00,VWS V13.01,2013-03-14 03:40:00,
2013-03-13 20:46:00,65.5,40.5,29.98,North,1,0.0,0.0,40,0.00,,---,0.00,VWS V13.01,2013-03-14 03:46:00,
2013-03-13 20:52:00,65.1,42.1,29.98,North,1,0.0,0.0,43,0.00,,---,0.00,VWS V13.01,2013-03-14 03:52:00,
2013-03-13 20:59:00,64.8,41.8,29.98,North,1,0.0,0.0,43,0.00,,---,0.00,VWS V13.01,2013-03-14 03:59:00,
2013-03-13 21:00:00,64.8,41.8,29.98,North,1,0.0,0.0,43,0.00,,---,0.00,VWS V13.01,2013-03-14 04:00:00,
2013-03-13 21:01:00,64.6,41.6,29.98,North,1,0.0,0.0,43,0.00,,---,0.00,VWS V13.01,2013-03-14 04:01:00,
2013-03-13 21:05:00,64.2,41.3,29.98,North,1,0.0,0.0,43,0.00,,---,0.00,VWS V13.01,2013-03-14 04:05:00,
2013-03-13 21:11:00,63.9,42.7,29.98,North,1,0.0,0.0,46,0.00,,---,0.00,VWS V13.01,2013-03-14 04:11:00,
2013-03-13 21:13:00,63.9,42.7,29.98,North,1,0.0,0.0,46,0.00,,---,0.00,VWS V13.01,2013-03-14 04:13:00,
2013-03-13 21:19:00,63.3,42.2,29.98,North,1,0.0,0.0,46,0.00,,---,0.00,VWS V13.01,2013-03-14 04:19:00,
2013-03-13 21:24:00,63.0,43.0,29.98,North,1,0.0,0.0,48,0.00,,---,0.00,VWS V13.01,2013-03-14 04:24:00,
2013-03-13 21:29:00,62.8,43.4,29.98,North,1,0.0,0.0,49,0.00,,---,0.00,VWS V13.01,2013-03-14 04:29:00,
2013-03-13 21:35:00,62.8,43.4,29.98,North,1,0.0,0.0,49,0.00,,---,0.00,VWS V13.01,2013-03-14 04:35:00,
2013-03-13 21:41:00,62.6,43.2,29.98,North,1,0.0,0.0,49,0.00,,---,0.00,VWS V13.01,2013-03-14 04:41:00,
2013-03-13 21:47:00,62.4,43.0,29.98,North,1,0.0,0.0,49,0.00,,---,0.00,VWS V13.01,2013-03-14 04:47:00,
2013-03-13 21:53:00,62.2,43.4,30.01,North,1,0.0,0.0,50,0.00,,---,0.00,VWS V13.01,2013-03-14 04:53:00,
2013-03-13 21:59:00,62.2,43.4,30.01,North,1,0.0,0.0,50,0.00,,---,0.00,VWS V13.01,2013-03-14 04:59:00,
2013-03-13 22:04:00,62.1,43.2,30.01,North,1,0.0,0.0,50,0.00,,---,0.00,VWS V13.01,2013-03-14 05:04:00,
2013-03-13 22:09:00,62.1,43.2,30.01,North,1,0.0,0.0,50,0.00,,---,0.00,VWS V13.01,2013-03-14 05:09:00,
2013-03-13 22:14:00,61.9,43.1,30.01,North,1,0.0,0.0,50,0.00,,---,0.00,VWS V13.01,2013-03-14 05:14:00,
2013-03-13 22:19:00,61.7,42.9,30.01,North,1,0.0,0.0,50,0.00,,---,0.00,VWS V13.01,2013-03-14 05:19:00,
2013-03-13 22:25:00,61.5,42.7,30.01,North,1,0.0,0.0,50,0.00,,---,0.00,VWS V13.01,2013-03-14 05:25:00,
2013-03-13 22:31:00,61.2,42.4,30.01,North,1,0.0,0.0,50,0.00,,---,0.00,VWS V13.01,2013-03-14 05:31:00,
2013-03-13 22:38:00,60.8,42.6,30.01,North,1,0.0,0.0,51,0.00,,---,0.00,VWS V13.01,2013-03-14 05:38:00,
2013-03-13 22:44:00,60.6,42.4,30.01,North,1,0.0,0.0,51,0.00,,---,0.00,VWS V13.01,2013-03-14 05:44:00,
2013-03-13 22:49:00,60.6,42.4,30.01,North,1,0.0,0.0,51,0.00,,---,0.00,VWS V13.01,2013-03-14 05:49:00,
2013-03-13 22:54:00,60.4,42.2,30.01,North,1,0.0,0.0,51,0.00,,---,0.00,VWS V13.01,2013-03-14 05:54:00,
2013-03-13 22:59:00,60.3,42.1,30.01,North,1,0.0,0.0,51,0.00,,---,0.00,VWS V13.01,2013-03-14 05:59:00,
2013-03-13 23:06:00,60.1,42.4,30.01,North,1,0.0,0.0,52,0.00,,---,0.00,VWS V13.01,2013-03-14 06:06:00,
2013-03-13 23:12:00,60.1,42.4,30.01,North,1,0.0,0.0,52,0.00,,---,0.00,VWS V13.01,2013-03-14 06:12:00,
2013-03-13 23:18:00,59.9,42.2,30.01,North,1,0.0,0.0,52,0.00,,---,0.00,VWS V13.01,2013-03-14 06:18:00,
2013-03-13 23:24:00,59.5,41.9,30.01,North,1,0.0,0.0,52,0.00,,---,0.00,VWS V13.01,2013-03-14 06:24:00,
2013-03-13 23:29:00,59.2,42.1,30.01,North,1,0.0,0.0,53,0.00,,---,0.00,VWS V13.01,2013-03-14 06:29:00,
2013-03-13 23:35:00,59.0,41.9,30.01,North,1,0.0,0.0,53,0.00,,---,0.00,VWS V13.01,2013-03-14 06:35:00,
2013-03-13 23:40:00,58.8,42.2,30.01,North,1,0.0,0.0,54,0.00,,---,0.00,VWS V13.01,2013-03-14 06:40:00,
2013-03-13 23:46:00,58.6,42.1,30.01,North,1,0.0,0.0,54,0.00,,---,0.00,VWS V13.01,2013-03-14 06:46:00,
2013-03-13 23:52:00,58.5,42.4,30.01,North,1,0.0,0.0,55,0.00,,---,0.00,VWS V13.01,2013-03-14 06:52:00,
2013-03-13 23:58:00,58.3,42.2,30.01,North,1,0.0,0.0,55,0.00,,---,0.00,VWS V13.01,2013-03-14 06:58:00,